Time;durP1;ratioP1;P1;durP2;ratioP2;P2;SDS_P1;SDS_P2;PMS_P1;PMS_P2;Temp;Humidity;BMP_temperature;BMP_pressure;BME280_temperature;BME280_humidity;BME280_pressure;Samples;Min_cycle;Max_cycle;Signal;HPM_P1;HPM_P2
2021/07/15 00:00:37;;;;;;;3.50;2.35;;;18.70;99.90;;;;;;5093507;28;20519;-82
2021/07/15 00:03:06;;;;;;;4.70;2.38;;;18.60;99.90;;;;;;5093971;28;20028;-81
2021/07/15 00:05:32;;;;;;;4.28;2.50;;;18.50;99.90;;;;;;5092974;28;20043;-82
2021/07/15 00:07:59;;;;;;;4.10;2.40;;;18.50;99.90;;;;;;5091632;28;20038;-82
2021/07/15 00:10:33;;;;;;;4.27;2.40;;;18.40;99.90;;;;;;5093319;28;20040;-81
2021/07/15 00:12:59;;;;;;;4.28;2.08;;;18.30;99.90;;;;;;5092617;28;20032;-81
2021/07/15 00:15:26;;;;;;;2.45;2.10;;;18.30;99.90;;;;;;5092786;28;20138;-83
2021/07/15 00:17:55;;;;;;;5.90;2.20;;;18.30;99.90;;;;;;5092236;28;20051;-81
2021/07/15 00:20:22;;;;;;;4.10;2.00;;;18.40;99.90;;;;;;5091238;28;20032;-83
2021/07/15 00:22:47;;;;;;;2.53;1.75;;;18.30;99.90;;;;;;5095183;28;20119;-84
2021/07/15 00:25:17;;;;;;;4.47;2.08;;;18.40;99.90;;;;;;5092568;28;20162;-81
2021/07/15 00:27:44;;;;;;;6.28;2.42;;;18.40;99.90;;;;;;5091804;28;20029;-82
2021/07/15 00:30:11;;;;;;;2.17;1.73;;;18.40;99.90;;;;;;5091191;28;20422;-83
2021/07/15 00:32:37;;;;;;;2.63;2.08;;;18.20;99.90;;;;;;5091425;28;20035;-83
2021/07/15 00:35:04;;;;;;;3.47;1.88;;;18.20;99.90;;;;;;5090403;28;20366;-83
2021/07/15 00:37:30;;;;;;;2.95;2.00;;;18.20;99.90;;;;;;5093100;28;20039;-82
2021/07/15 00:39:56;;;;;;;2.97;2.00;;;18.20;99.90;;;;;;5090917;28;20466;-83
2021/07/15 00:42:21;;;;;;;2.25;1.77;;;18.20;99.90;;;;;;5091106;28;20069;-81
2021/07/15 00:44:48;;;;;;;8.80;2.60;;;18.20;99.90;;;;;;5091618;28;20024;-81
2021/07/15 00:47:13;;;;;;;5.05;2.28;;;18.10;99.90;;;;;;5091146;28;20028;-81
2021/07/15 00:49:39;;;;;;;4.15;2.38;;;18.20;99.90;;;;;;5091192;28;20097;-82
2021/07/15 00:52:11;;;;;;;4.63;2.63;;;18.20;99.90;;;;;;5090787;28;20107;-80
2021/07/15 00:54:39;;;;;;;4.07;3.17;;;18.20;99.90;;;;;;5090624;28;20016;-80
2021/07/15 00:57:05;;;;;;;2.20;2.00;;;18.20;99.90;;;;;;5091439;28;20028;-80
2021/07/15 00:59:30;;;;;;;3.05;2.13;;;18.20;99.90;;;;;;5089836;28;20629;-81
2021/07/15 01:01:56;;;;;;;2.70;2.35;;;18.20;99.90;;;;;;5090558;28;20116;-81
2021/07/15 01:04:22;;;;;;;3.13;2.50;;;18.20;99.90;;;;;;5090515;28;20032;-82
2021/07/15 01:06:47;;;;;;;3.17;2.35;;;18.20;99.90;;;;;;5089968;28;20461;-82
2021/07/15 01:09:13;;;;;;;4.60;2.25;;;18.30;99.90;;;;;;5091073;28;20475;-79
2021/07/15 01:11:45;;;;;;;7.50;2.30;;;18.30;99.90;;;;;;5089631;28;20449;-82
2021/07/15 01:14:36;;;;;;;2.78;2.15;;;18.30;99.90;;;;;;5090676;28;20032;-82
2021/07/15 01:17:21;;;;;;;4.07;2.05;;;18.30;99.90;;;;;;5089952;28;20358;-83
2021/07/15 01:20:17;;;;;;;3.08;2.15;;;18.30;99.90;;;;;;5089395;28;20036;-82
2021/07/15 01:23:12;;;;;;;4.43;2.03;;;18.30;99.90;;;;;;5090713;28;20057;-82
2021/07/15 01:26:19;;;;;;;3.40;2.00;;;18.30;99.90;;;;;;5090576;28;20028;-82
2021/07/15 01:29:12;;;;;;;4.57;2.38;;;18.30;99.90;;;;;;5072105;28;20040;-81
2021/07/15 01:31:42;;;;;;;4.35;2.40;;;18.30;99.90;;;;;;5088803;28;20043;-80
2021/07/15 01:34:11;;;;;;;5.05;2.40;;;18.30;99.90;;;;;;5089197;28;20199;-80
2021/07/15 01:36:41;;;;;;;2.55;2.30;;;18.40;99.90;;;;;;5121098;28;20096;-82
2021/07/15 01:39:09;;;;;;;5.15;2.22;;;18.40;99.90;;;;;;5113690;28;20020;-84
2021/07/15 01:41:41;;;;;;;6.50;2.33;;;18.50;99.90;;;;;;5131504;28;20051;-84
2021/07/15 01:44:26;;;;;;;2.15;1.88;;;18.50;99.90;;;;;;5113717;28;20080;-81
2021/07/15 01:46:53;;;;;;;2.60;2.15;;;18.50;99.90;;;;;;5131625;28;20034;-82
2021/07/15 01:49:19;;;;;;;6.10;2.50;;;18.60;99.90;;;;;;5112687;28;20023;-82
2021/07/15 01:51:46;;;;;;;7.30;2.25;;;18.60;99.90;;;;;;5131649;28;20027;-82
2021/07/15 01:54:12;;;;;;;2.47;2.10;;;18.60;99.90;;;;;;5113559;28;20051;-81
2021/07/15 01:56:40;;;;;;;3.50;2.10;;;18.70;99.90;;;;;;5131257;28;20058;-81
2021/07/15 01:59:09;;;;;;;10.32;2.05;;;18.70;99.90;;;;;;5112980;28;20019;-81
2021/07/15 02:01:37;;;;;;;3.95;1.85;;;18.70;99.90;;;;;;5131138;28;20187;-81
2021/07/15 02:04:04;;;;;;;4.47;1.90;;;18.70;99.90;;;;;;5131227;28;20138;-83
2021/07/15 02:06:31;;;;;;;3.05;1.98;;;18.70;99.90;;;;;;5131941;27;20029;-81
2021/07/15 02:09:00;;;;;;;2.20;1.98;;;18.70;99.90;;;;;;5117242;27;20102;-81
2021/07/15 02:11:33;;;;;;;2.00;1.80;;;18.60;99.90;;;;;;5135098;27;20523;-82
2021/07/15 02:14:11;;;;;;;4.28;2.03;;;18.70;99.90;;;;;;5134931;27;20122;-81
2021/07/15 02:16:40;;;;;;;2.47;2.25;;;18.80;99.90;;;;;;5135555;27;20280;-81
2021/07/15 02:19:08;;;;;;;4.97;1.77;;;18.80;99.90;;;;;;5116892;27;20023;-81
2021/07/15 02:21:36;;;;;;;2.53;1.98;;;18.80;99.90;;;;;;5134733;27;20019;-83
2021/07/15 02:24:06;;;;;;;5.43;2.17;;;18.80;99.90;;;;;;5117116;27;20034;-82
2021/07/15 02:26:34;;;;;;;6.65;1.95;;;18.70;99.90;;;;;;5134714;27;20031;-82
2021/07/15 02:29:00;;;;;;;6.53;2.08;;;18.70;99.90;;;;;;5116082;27;20482;-82
2021/07/15 02:31:36;;;;;;;3.65;2.00;;;18.70;99.90;;;;;;5134936;27;20038;-83
2021/07/15 02:34:09;;;;;;;3.92;2.00;;;18.70;99.90;;;;;;5134425;27;20358;-81
2021/07/15 02:36:37;;;;;;;4.75;2.08;;;18.70;99.90;;;;;;5134356;27;20031;-83
2021/07/15 02:39:04;;;;;;;;;;;18.60;99.90;;;;;;5135191;27;20027;-82
2021/07/15 02:41:30;;;;;;;5.75;2.55;;;18.60;99.90;;;;;;5116211;27;20346;-81
2021/07/15 02:43:56;;;;;;;6.15;2.55;;;18.70;99.90;;;;;;5116317;27;20024;-83
2021/07/15 02:46:21;;;;;;;2.28;1.77;;;18.60;99.90;;;;;;5119234;27;20030;-82
2021/07/15 02:48:47;;;;;;;4.38;2.30;;;18.60;99.90;;;;;;5134229;27;20027;-83
2021/07/15 02:51:12;;;;;;;7.18;2.83;;;18.60;99.90;;;;;;5116553;27;20059;-83
2021/07/15 02:53:39;;;;;;;4.80;2.15;;;18.60;99.90;;;;;;5134329;27;20079;-83
2021/07/15 02:56:33;;;;;;;4.82;2.00;;;18.60;99.90;;;;;;5134176;27;20031;-83
2021/07/15 02:59:32;;;;;;;6.65;2.13;;;18.50;99.90;;;;;;5116058;27;20031;-83
2021/07/15 03:02:29;;;;;;;5.93;2.35;;;18.50;99.90;;;;;;5133933;27;20027;-83
2021/07/15 03:05:17;;;;;;;4.20;2.13;;;18.50;99.90;;;;;;5134300;27;20035;-82
2021/07/15 03:07:52;;;;;;;6.18;2.60;;;18.50;99.90;;;;;;5133835;27;20348;-82
2021/07/15 03:10:20;;;;;;;3.05;2.20;;;18.60;99.90;;;;;;5134242;27;20034;-84
2021/07/15 03:12:46;;;;;;;3.08;2.15;;;18.60;99.90;;;;;;5133747;27;20035;-85
2021/07/15 03:15:12;;;;;;;2.63;2.00;;;18.50;99.90;;;;;;5134321;27;20172;-84
2021/07/15 03:17:44;;;;;;;8.88;2.55;;;18.50;99.90;;;;;;5133551;27;20020;-85
2021/07/15 03:20:19;;;;;;;4.78;2.17;;;18.40;99.90;;;;;;5115323;27;20102;-82
2021/07/15 03:22:49;;;;;;;6.93;2.17;;;18.40;99.90;;;;;;5133927;27;20074;-83
2021/07/15 03:25:19;;;;;;;7.15;2.40;;;18.40;99.90;;;;;;5133600;27;20517;-80
2021/07/15 03:27:47;;;;;;;6.03;2.10;;;18.50;99.90;;;;;;5133398;27;20031;-80
2021/07/15 03:30:14;;;;;;;7.10;2.25;;;18.40;99.90;;;;;;5134084;27;20047;-83
2021/07/15 03:32:42;;;;;;;5.88;2.67;;;18.40;99.90;;;;;;5133561;27;20350;-83
2021/07/15 03:35:09;;;;;;;6.95;2.72;;;18.50;99.90;;;;;;5115208;27;20122;-84
2021/07/15 03:37:40;;;;;;;6.63;2.28;;;18.30;99.90;;;;;;5133163;27;20065;-82
2021/07/15 03:40:06;;;;;;;5.32;2.35;;;18.30;99.90;;;;;;5133138;27;20039;-83
2021/07/15 03:42:33;;;;;;;5.53;2.47;;;18.30;99.90;;;;;;5115073;27;20122;-83
2021/07/15 03:45:00;;;;;;;10.23;2.50;;;18.30;99.90;;;;;;5133639;27;20077;-81
2021/07/15 03:47:28;;;;;;;2.80;2.22;;;18.30;99.90;;;;;;5133027;27;20656;-82
2021/07/15 03:49:55;;;;;;;7.25;2.15;;;18.30;99.90;;;;;;5133283;27;20023;-82
2021/07/15 03:52:21;;;;;;;3.50;2.30;;;18.30;99.90;;;;;;5133056;27;20529;-82
2021/07/15 03:54:48;;;;;;;7.95;2.50;;;18.30;99.90;;;;;;5114579;27;20050;-82
2021/07/15 03:57:17;;;;;;;6.60;2.47;;;18.30;99.90;;;;;;5133581;27;20051;-82
2021/07/15 03:59:47;;;;;;;4.38;2.13;;;18.40;99.90;;;;;;5132897;27;20090;-83
2021/07/15 04:02:29;;;;;;;3.20;2.20;;;18.40;99.90;;;;;;5132739;27;20039;-83
2021/07/15 04:04:59;;;;;;;8.10;2.30;;;18.40;99.90;;;;;;5132626;27;20062;-82
2021/07/15 04:07:28;;;;;;;4.88;2.20;;;18.30;99.90;;;;;;5132954;27;20046;-82
2021/07/15 04:09:55;;;;;;;4.13;2.30;;;18.30;99.90;;;;;;5114706;27;20095;-81
2021/07/15 04:12:23;;;;;;;5.20;2.10;;;18.30;99.90;;;;;;5133050;27;20034;-82
2021/07/15 04:15:00;;;;;;;5.15;2.20;;;18.30;99.90;;;;;;5114678;27;20692;-81
2021/07/15 04:17:30;;;;;;;3.35;2.08;;;18.40;99.90;;;;;;5132550;27;20034;-83
2021/07/15 04:19:59;;;;;;;8.55;2.00;;;18.30;99.90;;;;;;5132461;27;20051;-83
2021/07/15 04:22:28;;;;;;;3.13;1.70;;;18.40;99.90;;;;;;5132575;27;20520;-81
2021/07/15 04:24:55;;;;;;;3.88;2.42;;;18.40;99.90;;;;;;5132187;27;20123;-81
2021/07/15 04:27:23;;;;;;;3.17;2.13;;;18.40;99.90;;;;;;5133266;27;20102;-83
2021/07/15 04:29:49;;;;;;;3.08;1.92;;;18.40;99.90;;;;;;5113420;27;20027;-80
2021/07/15 04:32:28;;;;;;;8.13;2.60;;;18.40;99.90;;;;;;5132349;27;20440;-82
2021/07/15 04:34:55;;;;;;;4.78;2.10;;;18.50;99.90;;;;;;5132001;27;20058;-80
2021/07/15 04:37:22;;;;;;;3.78;2.30;;;18.50;99.90;;;;;;5114056;27;20023;-80
2021/07/15 04:39:48;;;;;;;10.63;2.47;;;18.40;99.90;;;;;;5131507;27;20035;-82
2021/07/15 04:42:15;;;;;;;7.22;2.30;;;18.50;99.90;;;;;;5114468;27;20359;-82
2021/07/15 04:44:43;;;;;;;4.00;2.10;;;18.60;99.90;;;;;;5113796;27;20361;-84
2021/07/15 04:47:10;;;;;;;8.45;2.38;;;18.50;99.90;;;;;;5113668;27;20488;-82
2021/07/15 04:49:36;;;;;;;7.60;1.92;;;18.60;99.90;;;;;;5132290;27;20031;-82
2021/07/15 04:52:06;;;;;;;4.72;1.88;;;18.60;99.90;;;;;;5114020;27;20023;-80
2021/07/15 04:54:32;;;;;;;3.97;1.75;;;18.50;99.90;;;;;;5114283;27;20034;-81
2021/07/15 04:56:58;;;;;;;2.47;1.77;;;18.60;99.90;;;;;;5116830;27;20023;-81
2021/07/15 04:59:24;;;;;;;6.50;2.40;;;18.60;99.90;;;;;;5132254;27;20020;-86
2021/07/15 05:01:51;;;;;;;8.30;2.10;;;18.60;99.90;;;;;;5113798;27;20095;-86
2021/07/15 05:04:17;;;;;;;7.00;2.30;;;18.60;99.90;;;;;;5132172;27;20016;-84
2021/07/15 05:06:42;;;;;;;3.17;1.98;;;18.60;99.90;;;;;;5131779;27;20345;-87
2021/07/15 05:09:08;;;;;;;7.22;1.83;;;18.70;99.90;;;;;;5131992;27;20068;-84
2021/07/15 05:11:34;;;;;;;4.28;2.60;;;18.70;99.90;;;;;;5131748;27;20023;-85
2021/07/15 05:14:05;;;;;;;10.93;2.38;;;18.70;99.90;;;;;;5131474;27;20032;-82
2021/07/15 05:16:31;;;;;;;5.18;2.22;;;18.80;99.90;;;;;;5113061;27;20035;-84
2021/07/15 05:18:57;;;;;;;6.78;1.80;;;18.70;99.90;;;;;;5131509;27;20115;-83
2021/07/15 05:21:23;;;;;;;6.55;2.28;;;18.80;99.90;;;;;;5132388;28;20079;-81
2021/07/15 05:23:49;;;;;;;9.93;2.17;;;18.80;99.90;;;;;;5132797;28;20023;-84
2021/07/15 05:26:15;;;;;;;7.55;2.15;;;18.80;99.90;;;;;;5114041;28;20039;-81
2021/07/15 05:28:42;;;;;;;8.57;2.15;;;18.80;99.90;;;;;;5131714;28;20060;-80
2021/07/15 05:31:07;;;;;;;8.10;1.85;;;18.80;99.90;;;;;;5131780;28;20118;-77
2021/07/15 05:33:33;;;;;;;5.30;2.13;;;18.80;99.90;;;;;;5131982;28;20540;-77
2021/07/15 05:35:59;;;;;;;9.75;2.03;;;18.80;99.90;;;;;;5131930;28;20341;-78
2021/07/15 05:38:25;;;;;;;7.10;1.92;;;18.80;99.90;;;;;;5131292;28;20039;-78
2021/07/15 05:40:50;;;;;;;5.25;1.73;;;18.90;99.90;;;;;;5131078;27;20092;-78
2021/07/15 05:43:16;;;;;;;11.48;1.90;;;18.90;99.90;;;;;;5135332;27;20608;-77
2021/07/15 05:45:41;;;;;;;7.10;2.10;;;18.90;99.90;;;;;;5135412;27;20088;-81
2021/07/15 05:48:07;;;;;;;3.60;2.20;;;19.00;99.90;;;;;;5135927;27;20029;-80
2021/07/15 05:50:33;;;;;;;4.53;2.05;;;18.90;99.90;;;;;;5121459;27;20576;-78
2021/07/15 05:52:58;;;;;;;6.25;1.75;;;19.00;99.90;;;;;;5094274;28;20375;-79
2021/07/15 05:55:24;;;;;;;6.32;1.70;;;19.00;99.90;;;;;;5094247;28;20039;-79
2021/07/15 05:57:49;;;;;;;4.35;1.73;;;19.10;99.90;;;;;;5094173;28;20028;-79
2021/07/15 06:00:15;;;;;;;2.25;1.60;;;19.20;99.90;;;;;;5093375;28;20020;-79
2021/07/15 06:02:41;;;;;;;3.75;1.95;;;19.30;99.90;;;;;;5094264;28;20025;-77
2021/07/15 06:05:07;;;;;;;5.45;1.92;;;19.30;99.90;;;;;;5093288;28;20029;-79
2021/07/15 06:07:36;;;;;;;9.43;2.13;;;19.30;99.90;;;;;;5094031;28;20039;-79
2021/07/15 06:10:01;;;;;;;10.25;2.17;;;19.40;99.90;;;;;;5094298;28;20028;-78
2021/07/15 06:12:27;;;;;;;3.28;1.63;;;19.50;99.90;;;;;;5094009;28;20022;-78
2021/07/15 06:14:53;;;;;;;8.40;1.98;;;19.50;99.90;;;;;;5094282;28;20028;-78
2021/07/15 06:17:18;;;;;;;9.20;2.30;;;19.50;99.90;;;;;;5093966;28;20035;-80
2021/07/15 06:19:44;;;;;;;9.20;2.80;;;19.60;99.90;;;;;;5093825;28;20024;-79
2021/07/15 06:22:10;;;;;;;4.45;2.45;;;19.60;99.90;;;;;;5093886;28;20031;-80
2021/07/15 06:24:35;;;;;;;5.85;1.80;;;19.70;99.90;;;;;;5094055;28;20024;-79
2021/07/15 06:27:02;;;;;;;6.32;2.08;;;19.70;99.90;;;;;;5094291;28;20032;-78
2021/07/15 06:29:28;;;;;;;4.28;2.20;;;19.70;99.90;;;;;;5093843;28;20040;-79
2021/07/15 06:31:53;;;;;;;5.75;2.20;;;19.80;99.90;;;;;;5092604;28;20028;-79
2021/07/15 06:34:19;;;;;;;6.63;1.70;;;19.80;99.90;;;;;;5093592;28;20036;-79
2021/07/15 06:36:46;;;;;;;3.15;1.80;;;19.80;99.90;;;;;;5075646;28;20048;-79
2021/07/15 06:39:14;;;;;;;15.60;1.98;;;19.90;99.90;;;;;;5093911;28;20081;-78
2021/07/15 06:41:39;;;;;;;6.13;1.95;;;19.90;99.90;;;;;;5093362;28;20044;-79
2021/07/15 06:44:05;;;;;;;6.60;1.83;;;19.90;99.90;;;;;;5093340;28;20051;-78
2021/07/15 06:46:33;;;;;;;7.22;2.88;;;20.00;99.90;;;;;;5093651;28;20274;-78
2021/07/15 06:48:59;;;;;;;10.93;4.20;;;20.00;99.90;;;;;;5093154;28;20020;-78
2021/07/15 06:51:25;;;;;;;4.07;1.55;;;20.10;99.90;;;;;;5093456;28;20043;-78
2021/07/15 06:53:52;;;;;;;13.85;2.35;;;20.10;99.90;;;;;;5091714;28;20051;-78
2021/07/15 06:56:17;;;;;;;4.50;1.45;;;20.20;99.90;;;;;;5092090;28;20366;-80
2021/07/15 06:58:43;;;;;;;6.13;1.80;;;20.20;99.90;;;;;;5093136;28;20474;-78
2021/07/15 07:01:09;;;;;;;3.42;1.67;;;20.30;99.90;;;;;;5093143;28;20032;-79
2021/07/15 07:03:36;;;;;;;4.68;1.67;;;20.30;99.90;;;;;;5093041;28;20036;-79
2021/07/15 07:06:02;;;;;;;5.43;1.92;;;20.40;99.90;;;;;;5093762;28;20031;-79
2021/07/15 07:08:28;;;;;;;6.53;1.38;;;20.50;99.90;;;;;;5092636;28;20028;-80
2021/07/15 07:10:54;;;;;;;7.28;1.52;;;20.60;99.90;;;;;;5093294;28;20043;-77
2021/07/15 07:13:20;;;;;;;7.43;1.80;;;20.70;99.90;;;;;;5092983;28;20405;-78
2021/07/15 07:15:45;;;;;;;1.73;1.23;;;20.80;99.90;;;;;;5092783;28;20107;-79
2021/07/15 07:18:11;;;;;;;1.88;1.13;;;20.80;99.90;;;;;;5093320;28;20036;-78
2021/07/15 07:20:37;;;;;;;2.95;1.00;;;20.90;99.90;;;;;;5092743;28;20029;-77
2021/07/15 07:23:06;;;;;;;3.08;1.35;;;20.90;99.90;;;;;;5092599;28;20028;-77
2021/07/15 07:25:32;;;;;;;7.05;1.38;;;20.90;99.90;;;;;;5092685;28;20035;-77
2021/07/15 07:27:59;;;;;;;1.20;1.10;;;21.00;99.90;;;;;;5091639;28;20036;-78
2021/07/15 07:30:24;;;;;;;4.22;1.10;;;21.00;99.20;;;;;;5092673;28;20031;-77
2021/07/15 07:32:50;;;;;;;2.88;1.58;;;21.00;99.50;;;;;;5093127;28;20016;-77
2021/07/15 07:35:17;;;;;;;4.25;1.13;;;21.10;99.40;;;;;;5092748;28;20046;-78
2021/07/15 07:37:44;;;;;;;2.53;1.38;;;21.10;99.30;;;;;;5090694;28;20505;-77
2021/07/15 07:40:11;;;;;;;1.92;0.77;;;21.30;99.30;;;;;;5092180;28;20048;-78
2021/07/15 07:42:37;;;;;;;2.60;1.02;;;21.30;99.20;;;;;;5092375;28;20093;-77
2021/07/15 07:45:05;;;;;;;1.75;1.00;;;21.50;98.70;;;;;;5092798;28;20430;-77
2021/07/15 07:47:31;;;;;;;1.50;0.80;;;21.70;98.80;;;;;;5092112;28;20103;-76
2021/07/15 07:49:57;;;;;;;5.15;0.80;;;21.70;98.40;;;;;;5092348;28;20191;-78
2021/07/15 07:52:22;;;;;;;4.53;1.85;;;21.80;98.30;;;;;;5091935;28;20032;-77
2021/07/15 07:54:48;;;;;;;2.25;1.10;;;21.90;98.70;;;;;;5091853;28;20066;-78
2021/07/15 07:57:13;;;;;;;6.32;1.30;;;22.00;98.50;;;;;;5092408;28;20020;-77
2021/07/15 07:59:39;;;;;;;1.23;1.00;;;22.00;97.90;;;;;;5091815;28;20067;-76
2021/07/15 08:02:05;;;;;;;2.97;1.23;;;22.00;98.00;;;;;;5090700;28;20070;-77
2021/07/15 08:04:31;;;;;;;3.03;0.90;;;22.10;97.70;;;;;;5091368;28;20123;-78
2021/07/15 08:06:57;;;;;;;1.10;1.00;;;22.20;98.00;;;;;;5090939;28;20497;-77
2021/07/15 08:09:24;;;;;;;2.42;0.98;;;22.40;97.60;;;;;;5090834;28;20236;-77
2021/07/15 08:11:53;;;;;;;8.00;0.98;;;23.00;98.20;;;;;;5092255;28;20028;-79
2021/07/15 08:14:19;;;;;;;4.43;0.95;;;23.80;98.50;;;;;;5091874;28;20097;-79
2021/07/15 08:16:46;;;;;;;4.15;1.45;;;24.20;96.10;;;;;;5091814;28;20127;-79
2021/07/15 08:19:11;;;;;;;8.00;1.30;;;24.10;95.80;;;;;;5091805;28;20111;-78
2021/07/15 08:21:37;;;;;;;4.13;0.80;;;24.10;95.50;;;;;;5091509;28;20095;-78
2021/07/15 08:24:03;;;;;;;2.92;1.10;;;24.10;95.20;;;;;;5092304;28;20461;-78
2021/07/15 08:26:29;;;;;;;3.30;1.00;;;23.90;95.00;;;;;;5091394;28;20043;-79
2021/07/15 08:28:54;;;;;;;9.27;1.00;;;24.40;95.40;;;;;;5091341;28;20035;-79
2021/07/15 08:31:22;;;;;;;1.55;1.15;;;25.20;94.60;;;;;;5091295;28;20086;-80
2021/07/15 08:33:47;;;;;;;3.95;1.02;;;26.10;93.60;;;;;;5091400;28;20028;-78
2021/07/15 08:36:13;;;;;;;4.43;0.80;;;27.10;92.80;;;;;;5091798;28;20161;-78
2021/07/15 08:38:41;;;;;;;1.02;0.90;;;27.70;91.40;;;;;;5089997;28;20123;-78
2021/07/15 08:41:07;;;;;;;1.35;0.90;;;27.90;91.60;;;;;;5091156;28;20460;-78
2021/07/15 08:43:36;;;;;;;5.45;1.40;;;28.50;90.40;;;;;;5091308;28;20371;-77
2021/07/15 08:46:03;;;;;;;1.40;0.63;;;27.70;88.60;;;;;;5091509;28;20024;-77
2021/07/15 08:48:31;;;;;;;5.97;0.90;;;27.50;89.30;;;;;;5090997;28;20027;-77
2021/07/15 08:50:58;;;;;;;13.80;8.27;;;27.70;90.10;;;;;;5091577;28;20016;-78
2021/07/15 08:53:26;;;;;;;2.97;1.40;;;27.70;89.00;;;;;;5091459;28;20051;-79
2021/07/15 08:58:37;;;;;;;4.38;1.02;;;27.40;89.70;;;;;;5091295;28;20517;-77
2021/07/15 09:01:03;;;;;;;1.95;1.00;;;27.20;89.20;;;;;;5091023;28;20024;-78
2021/07/15 09:03:29;;;;;;;6.65;1.42;;;26.80;90.10;;;;;;5090803;28;20032;-78
2021/07/15 09:05:54;;;;;;;4.68;1.33;;;26.40;90.50;;;;;;5091177;28;20032;-77
2021/07/15 09:08:21;;;;;;;3.33;1.13;;;26.30;90.70;;;;;;5090745;28;20060;-77
2021/07/15 09:10:46;;;;;;;4.03;1.40;;;26.10;91.20;;;;;;5090777;28;20032;-77
2021/07/15 09:13:12;;;;;;;2.88;1.30;;;26.20;91.00;;;;;;5090716;28;20365;-77
2021/07/15 09:15:39;;;;;;;1.70;0.82;;;26.20;90.70;;;;;;5091917;28;20412;-78
2021/07/15 09:18:12;;;;;;;2.83;1.10;;;26.10;91.40;;;;;;5090661;28;20085;-78
2021/07/15 09:20:38;;;;;;;4.22;0.80;;;26.20;90.70;;;;;;5090803;28;20066;-77
2021/07/15 09:23:08;;;;;;;4.00;1.30;;;26.10;90.50;;;;;;5090629;28;20048;-77
2021/07/15 09:25:39;;;;;;;2.50;0.90;;;26.70;90.00;;;;;;5089725;28;20052;-77
2021/07/15 09:28:06;;;;;;;2.85;1.27;;;26.70;88.30;;;;;;5090639;28;20032;-78
2021/07/15 09:30:32;;;;;;;1.65;1.13;;;26.80;89.10;;;;;;5090508;28;20109;-78
2021/07/15 09:32:59;;;;;;;2.75;1.00;;;26.80;88.00;;;;;;5090773;28;20429;-77
2021/07/15 09:35:26;;;;;;;;;;;26.60;87.80;;;;;;5090664;28;20078;-77
2021/07/15 09:37:54;;;;;;;2.65;0.90;;;26.50;88.40;;;;;;5090414;28;20063;-77
2021/07/15 09:40:40;;;;;;;4.57;1.00;;;26.40;89.10;;;;;;5089950;28;20044;-77
2021/07/15 09:43:16;;;;;;;2.55;0.77;;;26.00;88.70;;;;;;5090400;28;20031;-78
2021/07/15 09:45:43;;;;;;;1.45;0.73;;;25.50;88.10;;;;;;5090180;28;20048;-78
2021/07/15 09:48:22;;;;;;;2.37;0.90;;;25.10;88.90;;;;;;5090991;28;20092;-77
2021/07/15 09:50:50;;;;;;;4.88;0.70;;;25.10;90.00;;;;;;5072754;28;20040;-78
2021/07/15 09:53:19;;;;;;;3.17;1.40;;;25.30;90.10;;;;;;5090291;28;20101;-77
2021/07/15 09:55:45;;;;;;;2.97;1.08;;;25.60;90.50;;;;;;5090611;28;20035;-77
2021/07/15 09:58:12;;;;;;;0.90;0.75;;;25.80;88.70;;;;;;5090337;28;20047;-77
2021/07/15 10:00:41;;;;;;;4.93;0.80;;;25.80;87.70;;;;;;5089412;28;20467;-77
2021/07/15 10:03:08;;;;;;;1.60;0.90;;;26.10;87.90;;;;;;5090937;28;20016;-77
2021/07/15 10:05:36;;;;;;;3.22;1.10;;;26.20;87.50;;;;;;5090121;28;20028;-77
2021/07/15 10:08:09;;;;;;;1.02;0.85;;;26.40;87.70;;;;;;5090395;28;20024;-77
2021/07/15 10:10:37;;;;;;;1.00;0.80;;;26.50;86.50;;;;;;5090146;28;20356;-78
2021/07/15 10:13:20;;;;;;;0.77;0.77;;;26.50;84.90;;;;;;5089879;28;20042;-78
2021/07/15 10:15:47;;;;;;;1.60;0.80;;;26.40;86.00;;;;;;5090242;28;20116;-78
2021/07/15 10:18:13;;;;;;;9.30;5.67;;;26.60;85.70;;;;;;5090759;28;20020;-77
2021/07/15 10:20:56;;;;;;;3.88;2.00;;;26.70;85.40;;;;;;5090196;28;20493;-77
2021/07/15 10:23:36;;;;;;;5.85;1.50;;;26.90;86.30;;;;;;5090056;28;20038;-77
2021/07/15 10:26:04;;;;;;;6.82;1.80;;;27.10;86.60;;;;;;5090246;28;20075;-77
2021/07/15 10:28:30;;;;;;;3.30;1.95;;;27.40;85.40;;;;;;5092307;28;20061;-77
2021/07/15 10:31:01;;;;;;;3.50;2.67;;;27.30;84.40;;;;;;5091829;28;20047;-77
2021/07/15 10:33:29;;;;;;;4.03;2.40;;;27.20;84.00;;;;;;5092312;28;20555;-79
2021/07/15 10:35:56;;;;;;;3.72;2.42;;;27.30;84.30;;;;;;5094059;28;20031;-77
2021/07/15 10:38:22;;;;;;;9.05;3.63;;;27.50;83.40;;;;;;5093596;28;20035;-78
2021/07/15 10:40:51;;;;;;;7.15;2.60;;;27.10;83.50;;;;;;5093335;28;20178;-77
2021/07/15 10:43:17;;;;;;;14.90;7.05;;;27.40;84.20;;;;;;5093658;28;20016;-77
2021/07/15 10:45:44;;;;;;;13.50;6.55;;;27.50;82.50;;;;;;5093490;28;20377;-78
2021/07/15 10:48:13;;;;;;;8.10;3.40;;;27.10;82.80;;;;;;5093589;28;20052;-78
2021/07/15 10:50:40;;;;;;;3.33;2.58;;;27.20;83.00;;;;;;5093484;28;20100;-78
2021/07/15 10:53:07;;;;;;;2.85;2.42;;;27.50;82.70;;;;;;5092491;28;20101;-78
2021/07/15 10:55:33;;;;;;;3.75;2.33;;;27.40;81.30;;;;;;5093138;28;20039;-77
2021/07/15 10:57:58;;;;;;;5.07;2.80;;;27.30;82.00;;;;;;5093178;28;20069;-79
2021/07/15 11:00:28;;;;;;;5.53;1.85;;;27.40;82.60;;;;;;5092296;28;20024;-78
2021/07/15 11:03:12;;;;;;;5.50;1.35;;;27.50;82.60;;;;;;5093315;28;20102;-79
2021/07/15 11:05:51;;;;;;;4.22;2.20;;;27.40;81.60;;;;;;5093600;28;20115;-78
2021/07/15 11:08:17;;;;;;;4.90;2.80;;;27.30;83.70;;;;;;5092962;28;20484;-78
2021/07/15 11:10:44;;;;;;;7.25;2.30;;;27.60;83.30;;;;;;5092952;28;20038;-78
2021/07/15 11:13:10;;;;;;;5.35;1.75;;;27.60;82.20;;;;;;5092895;28;20035;-79
2021/07/15 11:15:49;;;;;;;5.18;1.92;;;27.50;83.00;;;;;;5092933;28;20454;-78
2021/07/15 11:21:27;;;;;;;3.53;1.70;;;27.50;82.90;;;;;;5093269;28;20048;-78
2021/07/15 11:24:05;;;;;;;2.03;1.45;;;27.50;82.30;;;;;;5093411;28;20072;-78
2021/07/15 11:26:33;;;;;;;5.75;2.33;;;27.40;82.80;;;;;;5093035;28;20113;-77
2021/07/15 11:29:00;;;;;;;7.30;4.53;;;27.40;83.00;;;;;;5092547;28;20512;-77
2021/07/15 11:31:51;;;;;;;6.45;2.50;;;27.30;81.90;;;;;;5092772;28;20036;-76
2021/07/15 11:34:35;;;;;;;3.83;2.67;;;27.20;82.60;;;;;;5092324;28;20359;-78
2021/07/15 11:37:26;;;;;;;5.20;2.28;;;27.20;83.30;;;;;;5090389;28;20090;-78
2021/07/15 11:39:55;;;;;;;2.17;1.70;;;27.30;84.00;;;;;;5090785;28;20032;-78
2021/07/15 11:42:23;;;;;;;7.70;1.60;;;27.30;83.80;;;;;;5090740;28;20047;-77
2021/07/15 11:45:07;;;;;;;4.93;1.60;;;27.30;84.10;;;;;;5092649;28;20462;-80
2021/07/15 11:47:46;;;;;;;2.30;1.27;;;27.40;83.00;;;;;;5090985;28;20032;-78
2021/07/15 11:50:29;;;;;;;3.13;1.55;;;27.40;83.60;;;;;;5092318;28;20031;-79
2021/07/15 11:53:21;;;;;;;6.65;2.25;;;27.50;83.40;;;;;;5091147;28;20643;-80
2021/07/15 11:55:49;;;;;;;2.72;2.45;;;27.50;81.60;;;;;;5090915;28;20497;-78
2021/07/15 11:58:34;;;;;;;;;;;27.40;81.30;;;;;;5092603;28;20032;-78
2021/07/15 12:01:38;;;;;;;3.75;2.40;;;27.40;82.10;;;;;;5092450;28;19911;-77
2021/07/15 12:04:08;;;;;;;4.32;2.05;;;27.20;82.00;;;;;;5010044;28;20064;-78
2021/07/15 12:06:35;;;;;;;3.00;1.67;;;27.30;82.70;;;;;;5009896;28;20034;-77
2021/07/15 12:09:09;;;;;;;6.30;3.78;;;27.40;82.00;;;;;;5044705;28;20350;-79
2021/07/15 12:11:44;;;;;;;4.50;2.50;;;27.40;81.50;;;;;;5091654;28;20102;-78
2021/07/15 12:14:10;;;;;;;4.32;2.35;;;27.40;82.00;;;;;;5091404;28;20032;-77
2021/07/15 12:16:40;;;;;;;4.88;1.55;;;27.50;81.70;;;;;;5091649;28;20043;-78
2021/07/15 12:19:09;;;;;;;2.47;1.83;;;27.10;83.40;;;;;;5090442;28;20036;-78
2021/07/15 12:21:36;;;;;;;3.05;1.63;;;27.10;82.00;;;;;;5090704;28;20069;-78
2021/07/15 12:24:16;;;;;;;2.85;1.90;;;27.10;82.70;;;;;;5092011;28;20099;-79
2021/07/15 12:26:42;;;;;;;7.20;4.50;;;27.00;83.40;;;;;;5091110;28;20032;-78
2021/07/15 12:29:13;;;;;;;5.75;2.78;;;27.00;82.60;;;;;;5091396;28;20036;-78
2021/07/15 12:31:39;;;;;;;3.28;2.20;;;26.70;82.90;;;;;;5091238;28;20031;-78
2021/07/15 12:34:07;;;;;;;2.50;2.28;;;26.70;82.70;;;;;;5091362;28;20040;-78
2021/07/15 12:36:36;;;;;;;5.10;2.08;;;26.90;81.70;;;;;;5091419;28;20452;-77
2021/07/15 12:39:10;;;;;;;3.00;2.40;;;27.00;82.30;;;;;;5090020;28;20470;-78
2021/07/15 12:41:41;;;;;;;7.22;2.42;;;27.20;81.70;;;;;;5092050;28;20054;-78
2021/07/15 12:44:11;;;;;;;4.05;2.25;;;27.30;80.70;;;;;;5089965;28;20025;-77
2021/07/15 12:46:40;;;;;;;2.40;2.15;;;27.40;80.30;;;;;;5091117;28;20111;-77
2021/07/15 12:49:11;;;;;;;2.95;2.17;;;27.20;80.40;;;;;;5090348;28;20468;-77
2021/07/15 12:51:40;;;;;;;4.03;3.10;;;27.20;80.90;;;;;;5090874;28;20111;-79
2021/07/15 12:54:07;;;;;;;3.80;2.55;;;27.20;80.20;;;;;;5090297;28;20498;-78
2021/07/15 12:56:33;;;;;;;3.08;2.30;;;27.20;79.80;;;;;;5090987;28;20027;-78
2021/07/15 12:59:03;;;;;;;4.53;2.38;;;27.00;79.70;;;;;;5091288;28;20024;-78
2021/07/15 13:01:29;;;;;;;3.90;2.83;;;27.10;79.20;;;;;;5090786;28;20032;-78
2021/07/15 13:04:05;;;;;;;2.67;2.13;;;27.00;79.80;;;;;;5089891;28;20359;-78